Tuesday, January 17, 2017, 3:54 AM EST
Back to Local

KLEB, Lebanon Municipal Airport

Location: Lebanon, NH, United States Lat: 43.633
Local Time: 3:54 AM EST ( 8:54 GMT) Lon: -72.3
Time Zone: US/Eastern Elev: 597 ft

Show me the last for .
Show Coded

Time T Td Feel RH Dir Speed Gust Alt SLP Vis Weather Sky Remarks
2017-01-17 02:53 17 13 - 83 - Calm - 30.20 30.24 10 CLR None
2017-01-17 01:53 18 14 - 84 - Calm - 30.19 30.23 10 CLR None
2017-01-17 00:53 19 15 - 84 - Calm - 30.18 30.21 10 CLR 6-hr Min Temp (1am): 17.1°F
6-hr Max Temp (1am): 32.0°F
2017-01-16 23:53 19 16 - 87 - Calm - 30.18 30.22 10 CLR 24-hr Min Temp (12am): 8.1°F
24-hr Max Temp (12am): 37.9°F
2017-01-16 22:53 19 16 - 87 - Calm - 30.20 30.24 10 CLR None
2017-01-16 21:53 21 17 - 84 - Calm - 30.20 30.24 10 CLR None
2017-01-16 20:53 24 18 - 77 - Calm - 30.21 30.25 10 CLR None
2017-01-16 19:53 28 18 23 65 10° 5 - 30.21 30.25 10 CLR None
2017-01-16 18:53 31 18 23 58 180° 9 - 30.20 30.24 10 CLR 6-hr Min Temp (7pm): 30.0°F
6-hr Max Temp (7pm): 37.9°F
2017-01-16 17:53 33 18 25 53 180° 10 - 30.21 30.25 10 CLR None
2017-01-16 16:53 31 18 23 58 180° 9 - 30.21 30.25 10 CLR None
2017-01-16 15:53 35 18 28 49 190° 9 - 30.21 30.25 10 CLR None
2017-01-16 14:53 38 18 31 43 190° 9 - 30.21 30.24 10 CLR None
2017-01-16 13:53 38 17 33 42 200° 7 - 30.21 30.25 10 CLR None
2017-01-16 12:53 35 17 29 47 220° 7 - 30.24 30.27 10 CLR 6-hr Min Temp (1pm): 8.1°F
6-hr Max Temp (1pm): 35.1°F
2017-01-16 11:53 29 16 - 57 - Calm - 30.28 30.32 10 CLR None
2017-01-16 10:53 22 15 - 74 - Calm - 30.32 30.37 10 CLR None
2017-01-16 09:53 17 12 - 80 - Calm - 30.36 30.41 10 CLR None
2017-01-16 08:53 13 9 - 83 - Calm - 30.37 30.42 10 CLR None
2017-01-16 07:53 9 5 - 83 - Calm - 30.38 30.43 10 CLR None
2017-01-16 06:53 9 5 - 83 - Calm - 30.38 30.43 10 CLR 6-hr Min Temp (7am): 9.0°F
6-hr Max Temp (7am): 14.0°F
2017-01-16 05:53 9 5 - 83 - Calm - 30.40 30.45 10 CLR None
2017-01-16 04:53 10 7 - 87 - Calm - 30.39 30.43 10 CLR None

Support USWX by starting your Amazon purchase here.